createdAt,value
2019-04-23T00:00:38.023Z,45.30
2019-04-23T00:02:48.898Z,42.13
2019-04-23T00:05:30.692Z,42.15
2019-04-23T00:10:26.154Z,43.83
2019-04-23T00:12:49.609Z,42.63
2019-04-23T00:17:47.839Z,44.20
2019-04-23T00:20:20.072Z,42.57
2019-04-23T00:25:43.867Z,40.45
2019-04-23T00:28:06.687Z,47.08
2019-04-23T00:33:05.335Z,41.70
2019-04-23T00:35:37.263Z,41.50
2019-04-23T00:38:07.687Z,43.20
2019-04-23T00:40:35.774Z,44.13
2019-04-23T00:43:04.092Z,45.40
2019-04-23T00:45:39.860Z,43.28
2019-04-23T00:48:09.817Z,46.05
2019-04-23T00:50:38.255Z,37.35
2019-04-23T00:53:08.669Z,43.17
2019-04-23T00:55:33.048Z,43.33
2019-04-23T00:58:08.166Z,42.80
2019-04-23T01:03:10.257Z,39.35
2019-04-23T01:05:35.596Z,41.33
2019-04-23T01:08:08.278Z,42.30
2019-04-23T01:10:59.841Z,45.95
2019-04-23T01:13:31.542Z,47.23
2019-04-23T01:15:57.838Z,44.30
2019-04-23T01:18:32.257Z,36.53
2019-04-23T01:20:53.494Z,36.38
2019-04-23T01:23:20.635Z,39.83
2019-04-23T01:25:58.845Z,40.92
2019-04-23T01:28:49.603Z,35.98
2019-04-23T01:31:16.644Z,41.13
2019-04-23T01:33:46.722Z,41.30
2019-04-23T01:36:21.410Z,38.13
2019-04-23T01:38:45.868Z,39.15
2019-04-23T01:43:47.381Z,41.28
2019-04-23T01:46:19.339Z,41.25
2019-04-23T01:48:47.136Z,35.92
2019-04-23T01:51:09.655Z,37.37
2019-04-23T01:53:45.523Z,40.70
2019-04-23T01:56:19.732Z,37.03
2019-04-23T01:58:44.002Z,37.07
2019-04-23T02:01:21.479Z,33.15
2019-04-23T02:03:50.105Z,38.90
2019-04-23T02:08:48.693Z,36.28
2019-04-23T02:11:11.527Z,38.90
2019-04-23T02:14:04.877Z,39.27
2019-04-23T02:16:21.948Z,43.83
2019-04-23T02:18:47.789Z,46.77
2019-04-23T02:21:38.409Z,41.25
2019-04-23T02:23:53.691Z,47.08
2019-04-23T02:26:32.827Z,37.25
2019-04-23T02:28:59.139Z,44.83
2019-04-23T02:36:39.763Z,45.03
2019-04-23T02:39:02.807Z,39.83
2019-04-23T02:41:35.222Z,44.93
2019-04-23T02:44:11.667Z,39.25
2019-04-23T02:46:31.325Z,39.83
2019-04-23T02:51:35.446Z,41.10
2019-04-23T02:54:16.042Z,45.90
2019-04-23T02:56:49.359Z,42.03
2019-04-23T02:59:14.524Z,40.77
2019-04-23T03:01:31.942Z,47.45
2019-04-23T03:04:09.971Z,43.43
2019-04-23T03:06:58.468Z,50.67
2019-04-23T03:12:00.216Z,45.00
2019-04-23T03:14:23.272Z,43.47
2019-04-23T03:16:56.688Z,42.78
2019-04-23T03:19:45.515Z,44.10
2019-04-23T03:24:54.962Z,44.42
2019-04-23T03:29:56.932Z,53.97
2019-04-23T03:42:28.567Z,52.88
2019-04-23T03:50:12.810Z,58.57
2019-04-23T03:52:35.399Z,62.60
2019-04-23T03:55:06.030Z,48.58
2019-04-23T04:00:06.966Z,53.98
2019-04-23T04:02:54.855Z,55.28
2019-04-23T04:04:49.843Z,57.30
2019-04-23T04:07:46.988Z,55.67
2019-04-23T04:10:05.406Z,44.53
2019-04-23T04:12:29.311Z,44.83
2019-04-23T04:15:14.316Z,47.17
2019-04-23T04:17:35.223Z,47.58
2019-04-23T04:20:35.171Z,49.57
2019-04-23T04:23:09.306Z,45.65
2019-04-23T04:30:43.786Z,46.70
2019-04-23T04:36:10.455Z,51.33
2019-04-23T04:43:31.775Z,48.10
2019-04-23T04:48:33.289Z,46.68
2019-04-23T04:51:11.421Z,49.18
2019-04-23T04:53:47.423Z,44.42
2019-04-23T04:58:33.590Z,44.67
2019-04-23T05:03:28.387Z,49.95
2019-04-23T05:08:36.842Z,43.47
2019-04-23T05:13:39.169Z,44.30
2019-04-23T05:15:58.634Z,42.47
2019-04-23T05:18:29.685Z,38.90
2019-04-23T05:23:42.893Z,39.10
2019-04-23T05:26:08.505Z,51.02
2019-04-23T05:28:54.379Z,60.63
2019-04-23T05:31:14.179Z,46.50
2019-04-23T05:33:44.910Z,53.68
2019-04-23T05:36:20.109Z,44.50
2019-04-23T05:39:00.826Z,52.83
2019-04-23T05:41:16.920Z,45.63
2019-04-23T05:43:43.510Z,42.33
2019-04-23T05:46:16.008Z,47.08
2019-04-23T05:48:37.593Z,48.52
2019-04-23T05:51:24.290Z,41.67
2019-04-23T05:56:06.667Z,54.17
2019-04-23T05:58:43.718Z,37.47
2019-04-23T06:01:33.650Z,48.92
2019-04-23T06:03:54.442Z,27.95
2019-04-23T06:06:20.272Z,39.97
2019-04-23T06:08:51.683Z,46.40
2019-04-23T06:11:19.269Z,30.32
2019-04-23T06:13:53.332Z,28.20
2019-04-23T06:16:16.530Z,31.17
2019-04-23T06:18:44.337Z,28.98
2019-04-23T06:21:15.671Z,30.50
2019-04-23T06:28:46.792Z,37.50
2019-04-23T06:31:17.819Z,28.07
2019-04-23T06:33:49.924Z,26.55
2019-04-23T06:36:19.530Z,24.12
2019-04-23T06:38:57.221Z,22.20
2019-04-23T06:41:16.987Z,38.73
2019-04-23T06:43:51.160Z,27.77
2019-04-23T06:46:20.137Z,25.25
2019-04-23T06:48:47.118Z,21.87
2019-04-23T06:51:29.186Z,19.45
2019-04-23T06:53:46.232Z,19.00
2019-04-23T06:58:48.947Z,16.50
2019-04-23T07:01:17.894Z,23.83
2019-04-23T07:03:51.935Z,27.60
2019-04-23T07:06:26.614Z,27.30
2019-04-23T07:09:05.343Z,21.45
2019-04-23T07:11:35.557Z,19.02
2019-04-23T07:14:27.647Z,19.70
2019-04-23T07:16:38.562Z,26.93
2019-04-23T07:19:31.840Z,21.48
2019-04-23T07:22:06.630Z,18.40
2019-04-23T07:24:32.832Z,17.23
2019-04-23T07:26:55.915Z,17.00
2019-04-23T07:29:31.125Z,24.80
2019-04-23T07:31:59.041Z,23.15
2019-04-23T07:34:28.241Z,20.37
2019-04-23T07:36:58.815Z,18.65
2019-04-23T07:39:35.625Z,19.30
2019-04-23T07:44:50.161Z,18.02
2019-04-23T07:47:26.398Z,21.37
2019-04-23T07:50:14.045Z,19.25
2019-04-23T07:52:34.133Z,18.12
2019-04-23T07:55:02.182Z,19.40
2019-04-23T07:59:56.991Z,17.35
2019-04-23T08:02:25.915Z,16.95
2019-04-23T08:05:04.799Z,17.57
2019-04-23T08:07:27.114Z,18.95
2019-04-23T08:10:14.220Z,19.92
2019-04-23T08:12:45.372Z,15.55
2019-04-23T08:15:18.133Z,17.77
2019-04-23T08:17:43.435Z,14.35
2019-04-23T08:20:38.670Z,15.85
2019-04-23T08:23:08.871Z,23.55
2019-04-23T08:26:02.160Z,18.95
2019-04-23T08:28:34.753Z,16.35
2019-04-23T08:30:52.771Z,18.82
2019-04-23T08:33:24.859Z,13.68
2019-04-23T08:35:59.018Z,16.70
2019-04-23T08:41:03.962Z,21.80
2019-04-23T08:43:36.882Z,21.50
2019-04-23T08:46:11.406Z,14.03
2019-04-23T08:48:34.515Z,23.60
2019-04-23T08:51:18.165Z,19.30
2019-04-23T08:56:24.118Z,15.85
2019-04-23T08:58:30.166Z,15.55
2019-04-23T09:01:06.301Z,13.68
2019-04-23T09:06:15.976Z,18.07
2019-04-23T09:08:33.143Z,15.48
2019-04-23T09:16:10.660Z,16.17
2019-04-23T09:18:33.150Z,17.85
2019-04-23T09:21:02.157Z,20.65
2019-04-23T09:26:02.311Z,14.75
2019-04-23T09:28:41.834Z,22.35
2019-04-23T09:31:30.310Z,22.27
2019-04-23T09:34:03.892Z,15.70
2019-04-23T09:41:38.076Z,12.88
2019-04-23T09:44:27.392Z,17.42
2019-04-23T09:46:49.001Z,20.02
2019-04-23T09:49:22.609Z,14.45
2019-04-23T09:54:33.990Z,20.17
2019-04-23T09:56:49.522Z,13.78
2019-04-23T09:59:26.448Z,13.50
2019-04-23T10:01:39.278Z,16.30
2019-04-23T10:04:00.048Z,32.50
2019-04-23T10:06:24.963Z,18.40
2019-04-23T10:08:53.998Z,16.52
2019-04-23T10:11:19.954Z,20.45
2019-04-23T10:13:48.557Z,21.00
2019-04-23T10:16:19.416Z,13.93
2019-04-23T10:18:47.136Z,14.05
2019-04-23T10:21:15.674Z,17.32
2019-04-23T10:23:45.216Z,14.43
2019-04-23T10:26:14.255Z,15.20
2019-04-23T10:28:44.488Z,14.30
2019-04-23T10:31:14.498Z,14.43
2019-04-23T10:33:44.032Z,25.88
2019-04-23T10:36:15.817Z,14.28
2019-04-23T10:38:51.302Z,14.68
2019-04-23T10:41:13.969Z,24.57
2019-04-23T10:43:46.749Z,16.20
2019-04-23T10:46:37.585Z,15.05
2019-04-23T10:52:12.890Z,25.75
2019-04-23T10:57:16.201Z,13.98
2019-04-23T11:02:24.113Z,14.68
2019-04-23T11:07:20.522Z,71.10
2019-04-23T11:09:50.343Z,17.37
2019-04-23T11:12:26.867Z,21.00
2019-04-23T11:14:51.257Z,35.95
2019-04-23T11:17:30.617Z,20.25
2019-04-23T11:19:56.779Z,17.80
2019-04-23T11:22:38.807Z,12.95
2019-04-23T11:24:48.888Z,23.75
2019-04-23T11:27:24.440Z,20.30
2019-04-23T11:29:50.587Z,22.02
2019-04-23T11:35:06.880Z,14.28
2019-04-23T11:37:25.084Z,20.90
2019-04-23T11:42:23.413Z,25.17
2019-04-23T11:44:49.122Z,20.50
2019-04-23T11:47:45.546Z,27.02
2019-04-23T11:49:53.719Z,18.15
2019-04-23T11:54:43.173Z,19.15
2019-04-23T11:57:29.897Z,17.00
2019-04-23T11:59:55.054Z,16.87
2019-04-23T12:02:38.952Z,15.30
2019-04-23T12:05:17.199Z,17.40
2019-04-23T12:07:36.182Z,19.07
2019-04-23T12:10:22.209Z,17.87
2019-04-23T12:15:25.153Z,17.70
2019-04-23T12:17:50.847Z,18.40
2019-04-23T12:20:27.186Z,24.87
2019-04-23T12:25:25.113Z,20.60
2019-04-23T12:27:44.194Z,18.42
2019-04-23T12:30:28.817Z,15.30
2019-04-23T12:48:07.689Z,17.52
2019-04-23T12:55:38.923Z,20.57
2019-04-23T12:58:11.035Z,22.32
2019-04-23T13:03:06.570Z,17.07
2019-04-23T13:05:31.486Z,20.30
2019-04-23T13:08:13.646Z,24.43
2019-04-23T13:10:32.547Z,12.85
2019-04-23T13:15:34.246Z,18.37
2019-04-23T13:18:23.632Z,15.58
2019-04-23T13:20:37.059Z,21.87
2019-04-23T13:23:11.455Z,15.43
2019-04-23T13:25:55.831Z,17.30
2019-04-23T13:28:23.656Z,17.98
2019-04-23T13:33:32.252Z,17.75
2019-04-23T13:36:01.101Z,18.07
2019-04-23T13:38:36.380Z,16.23
2019-04-23T13:40:55.786Z,17.27
2019-04-23T13:43:29.915Z,15.65
2019-04-23T13:48:16.246Z,19.32
2019-04-23T13:50:59.989Z,18.42
2019-04-23T13:55:47.196Z,13.78
2019-04-23T13:58:23.732Z,18.50
2019-04-23T14:01:00.681Z,20.50
2019-04-23T14:03:30.211Z,15.80
2019-04-23T14:08:47.285Z,14.47
2019-04-23T14:11:13.171Z,14.23
2019-04-23T14:16:15.307Z,20.32
2019-04-23T14:18:53.947Z,16.07
2019-04-23T14:21:14.122Z,18.27
2019-04-23T14:24:00.287Z,15.72
2019-04-23T14:26:18.675Z,18.12
2019-04-23T14:33:53.160Z,17.23
2019-04-23T14:36:07.745Z,26.90
2019-04-23T14:38:41.479Z,18.42
2019-04-23T14:41:16.519Z,22.27
2019-04-23T14:48:50.009Z,25.40
2019-04-23T14:51:22.995Z,21.80
2019-04-23T14:53:40.654Z,16.75
2019-04-23T14:58:50.717Z,15.78
2019-04-23T15:03:46.701Z,17.67
2019-04-23T15:13:44.645Z,17.92
2019-04-23T15:16:16.991Z,21.42
2019-04-23T15:28:32.611Z,16.42
2019-04-23T15:34:00.962Z,19.07
2019-04-23T15:36:38.873Z,18.85
2019-04-23T15:41:34.683Z,18.50
2019-04-23T15:43:57.404Z,19.35
2019-04-23T15:46:26.837Z,26.87
2019-04-23T15:49:01.141Z,32.83
2019-04-23T15:51:28.239Z,33.40
2019-04-23T15:53:56.631Z,26.77
2019-04-23T15:56:35.621Z,43.10
2019-04-23T15:59:04.530Z,27.55
2019-04-23T16:03:26.768Z,22.37
2019-04-23T16:05:55.197Z,18.45
2019-04-23T16:09:05.522Z,36.05
2019-04-23T16:11:33.298Z,25.12
2019-04-23T16:16:31.584Z,19.52
2019-04-23T16:19:00.262Z,52.80
2019-04-23T16:21:41.535Z,28.80
2019-04-23T16:24:22.076Z,22.77
2019-04-23T16:26:59.736Z,21.62
2019-04-23T16:34:19.446Z,20.32
2019-04-23T16:36:43.847Z,26.85
2019-04-23T16:41:56.949Z,23.55
2019-04-23T16:44:20.298Z,28.65
2019-04-23T16:46:50.334Z,19.35
2019-04-23T16:49:17.855Z,18.07
2019-04-23T16:51:51.781Z,28.25
2019-04-23T16:57:13.346Z,19.37
2019-04-23T17:01:52.427Z,29.67
2019-04-23T17:04:24.300Z,39.70
2019-04-23T17:07:05.374Z,22.85
2019-04-23T17:09:57.856Z,19.45
2019-04-23T17:14:48.170Z,28.73
2019-04-23T17:16:53.325Z,23.10
2019-04-23T17:19:40.622Z,26.20
2019-04-23T17:22:04.281Z,35.38
2019-04-23T17:24:51.628Z,42.67
2019-04-23T17:27:08.454Z,34.65
2019-04-23T17:29:38.090Z,34.55
2019-04-23T17:32:05.563Z,25.02
2019-04-23T17:34:55.099Z,42.30
2019-04-23T17:39:50.076Z,70.42
2019-04-23T17:42:27.332Z,65.50
2019-04-23T17:44:51.544Z,38.30
2019-04-23T17:47:37.705Z,44.33
2019-04-23T17:50:21.357Z,40.95
2019-04-23T17:52:44.353Z,47.60
2019-04-23T17:57:36.821Z,61.08
2019-04-23T18:00:16.033Z,68.12
2019-04-23T18:05:13.090Z,47.25
2019-04-23T18:10:18.315Z,64.22
2019-04-23T18:15:04.833Z,43.92
2019-04-23T18:17:35.011Z,42.10
2019-04-23T18:20:23.213Z,53.70
2019-04-23T18:25:25.842Z,56.60
2019-04-23T18:30:32.080Z,58.03
2019-04-23T18:35:33.992Z,54.75
2019-04-23T18:38:14.778Z,59.43
2019-04-23T18:41:02.402Z,41.17
2019-04-23T18:43:21.083Z,49.33
2019-04-23T18:45:45.089Z,53.13
2019-04-23T18:51:00.218Z,43.70
2019-04-23T18:58:35.128Z,51.50
2019-04-23T19:03:36.607Z,50.43
2019-04-23T19:09:03.161Z,54.05
2019-04-23T19:12:05.118Z,44.05
2019-04-23T19:14:25.668Z,59.75
2019-04-23T19:17:08.859Z,63.68
2019-04-23T19:19:20.348Z,54.63
2019-04-23T19:24:21.343Z,77.13
2019-04-23T19:27:18.774Z,64.60
2019-04-23T19:29:46.331Z,53.70
2019-04-23T19:32:14.273Z,67.53
2019-04-23T19:37:26.448Z,58.57
2019-04-23T19:39:36.860Z,75.05
2019-04-23T19:42:17.957Z,96.15
2019-04-23T19:47:10.291Z,84.87
2019-04-23T19:49:38.833Z,76.50
2019-04-23T19:52:03.207Z,79.67
2019-04-23T20:09:50.843Z,50.15
2019-04-23T20:12:28.301Z,51.40
2019-04-23T20:19:54.578Z,59.27
2019-04-23T20:22:16.718Z,51.20
2019-04-23T20:30:32.154Z,43.48
2019-04-23T20:35:11.526Z,36.85
2019-04-23T20:38:09.680Z,44.00
2019-04-23T20:40:15.772Z,41.13
2019-04-23T20:42:38.999Z,43.70
2019-04-23T20:49:58.881Z,46.80
2019-04-23T20:52:43.028Z,37.27
2019-04-23T21:03:18.443Z,30.23
2019-04-23T21:05:20.929Z,38.48
2019-04-23T21:13:05.570Z,38.00
2019-04-23T21:15:30.773Z,30.17
2019-04-23T21:18:17.228Z,39.40
2019-04-23T21:20:42.720Z,36.23
2019-04-23T21:23:14.588Z,33.73
2019-04-23T21:25:43.811Z,45.03
2019-04-23T21:28:20.236Z,51.37
2019-04-23T21:31:11.628Z,47.75
2019-04-23T21:33:34.039Z,57.17
2019-04-23T21:36:15.466Z,71.60
2019-04-23T21:38:56.295Z,53.60
2019-04-23T21:44:08.594Z,71.62
2019-04-23T21:46:41.701Z,80.75
2019-04-23T21:53:55.441Z,50.77
2019-04-23T21:56:33.259Z,40.73
2019-04-23T22:06:35.793Z,45.90
2019-04-23T22:16:38.878Z,45.33
2019-04-23T22:19:10.688Z,36.10
2019-04-23T22:21:41.173Z,35.07
2019-04-23T22:36:29.352Z,38.40
2019-04-23T22:39:03.263Z,33.13
2019-04-23T22:41:40.069Z,37.78
2019-04-23T22:46:50.927Z,34.53
2019-04-23T22:49:17.927Z,37.30
2019-04-23T22:51:41.476Z,39.80
2019-04-23T22:54:03.764Z,34.98
2019-04-23T22:56:42.653Z,36.17
2019-04-23T22:59:18.595Z,36.83
2019-04-23T23:06:53.937Z,39.42
2019-04-23T23:09:22.838Z,43.02
2019-04-23T23:11:42.818Z,40.90
2019-04-23T23:14:18.903Z,36.43
2019-04-23T23:16:35.928Z,35.33
2019-04-23T23:19:14.901Z,33.75
2019-04-23T23:21:54.558Z,32.23
2019-04-23T23:24:06.214Z,32.90
2019-04-23T23:26:44.444Z,35.63
2019-04-23T23:29:06.131Z,34.77
2019-04-23T23:31:46.627Z,33.07
2019-04-23T23:34:10.005Z,36.47
2019-04-23T23:36:47.389Z,31.37
2019-04-23T23:39:18.106Z,30.55
2019-04-23T23:41:46.901Z,42.30
2019-04-23T23:44:33.453Z,39.47
2019-04-23T23:49:14.057Z,31.42
2019-04-23T23:51:43.493Z,35.23
2019-04-23T23:54:08.731Z,33.08
2019-04-23T23:56:40.073Z,35.50
2019-04-23T23:59:10.380Z,33.10
